WebCam

  
Kamera Halle
Kamera Vorplatz
Wetter EDDS

METAR

EDDS 230720Z 21003KT 180V260 9999 -RA FEW015 SCT028 BKN041 05/02 Q1025 NOSIG =


TAF

EDDS 230500Z 2306/2406 20005KT 9999 SCT040 PROB30 TEMPO 2322/2406 RA =


SR/SS

07:00 / 16:05 UTC
(EDSO 23-01-2018)

Austräger der GPS Triangle WM 2017